sensor_id;sensor_type;location;lat;lon;timestamp;temperature;humidity
4701;DHT22;8724;51.272;6.554;2023-07-09T00:02:19;28.20;99.90
4701;DHT22;8724;51.272;6.554;2023-07-09T00:04:56;28.10;99.90
4701;DHT22;8724;51.272;6.554;2023-07-09T00:07:31;28.10;99.90
4701;DHT22;8724;51.272;6.554;2023-07-09T00:10:16;28.10;99.90
4701;DHT22;8724;51.272;6.554;2023-07-09T00:12:50;28.10;99.90
4701;DHT22;8724;51.272;6.554;2023-07-09T00:15:34;28.00;99.90
4701;DHT22;8724;51.272;6.554;2023-07-09T00:18:03;28.10;99.90
4701;DHT22;8724;51.272;6.554;2023-07-09T00:20:32;28.10;99.90
4701;DHT22;8724;51.272;6.554;2023-07-09T00:23:00;28.00;99.90
4701;DHT22;8724;51.272;6.554;2023-07-09T00:25:33;28.00;99.90
4701;DHT22;8724;51.272;6.554;2023-07-09T00:28:03;28.00;99.90
4701;DHT22;8724;51.272;6.554;2023-07-09T00:30:31;28.00;99.90
4701;DHT22;8724;51.272;6.554;2023-07-09T00:33:00;28.00;99.90
4701;DHT22;8724;51.272;6.554;2023-07-09T00:35:29;27.90;99.90
4701;DHT22;8724;51.272;6.554;2023-07-09T00:37:57;28.00;99.90
4701;DHT22;8724;51.272;6.554;2023-07-09T00:40:27;27.90;99.90
4701;DHT22;8724;51.272;6.554;2023-07-09T00:43:00;27.90;99.90
4701;DHT22;8724;51.272;6.554;2023-07-09T00:45:30;27.90;99.90
4701;DHT22;8724;51.272;6.554;2023-07-09T00:48:01;27.90;99.90
4701;DHT22;8724;51.272;6.554;2023-07-09T00:50:35;27.90;99.90
4701;DHT22;8724;51.272;6.554;2023-07-09T00:53:13;27.80;99.90
4701;DHT22;8724;51.272;6.554;2023-07-09T00:55:50;27.80;99.90
4701;DHT22;8724;51.272;6.554;2023-07-09T00:58:21;27.80;99.90
4701;DHT22;8724;51.272;6.554;2023-07-09T01:00:58;27.80;99.90
4701;DHT22;8724;51.272;6.554;2023-07-09T01:03:33;27.80;99.90
4701;DHT22;8724;51.272;6.554;2023-07-09T01:06:03;27.80;99.90
4701;DHT22;8724;51.272;6.554;2023-07-09T01:08:35;27.70;99.90
4701;DHT22;8724;51.272;6.554;2023-07-09T01:11:03;27.80;99.90
4701;DHT22;8724;51.272;6.554;2023-07-09T01:13:37;27.70;99.90
4701;DHT22;8724;51.272;6.554;2023-07-09T01:16:06;27.70;99.90
4701;DHT22;8724;51.272;6.554;2023-07-09T01:18:35;27.70;99.90
4701;DHT22;8724;51.272;6.554;2023-07-09T01:21:09;27.70;99.90
4701;DHT22;8724;51.272;6.554;2023-07-09T01:23:43;27.60;99.90
4701;DHT22;8724;51.272;6.554;2023-07-09T01:26:13;27.70;99.90
4701;DHT22;8724;51.272;6.554;2023-07-09T01:28:42;27.60;99.90
4701;DHT22;8724;51.272;6.554;2023-07-09T01:31:11;27.60;99.90
4701;DHT22;8724;51.272;6.554;2023-07-09T01:33:40;27.50;99.90
4701;DHT22;8724;51.272;6.554;2023-07-09T01:36:15;27.50;99.90
4701;DHT22;8724;51.272;6.554;2023-07-09T01:38:44;27.50;99.90
4701;DHT22;8724;51.272;6.554;2023-07-09T01:41:13;27.50;99.90
4701;DHT22;8724;51.272;6.554;2023-07-09T01:43:42;27.50;99.90
4701;DHT22;8724;51.272;6.554;2023-07-09T01:46:11;27.50;99.90
4701;DHT22;8724;51.272;6.554;2023-07-09T01:48:41;27.50;99.90
4701;DHT22;8724;51.272;6.554;2023-07-09T01:51:10;27.40;99.90
4701;DHT22;8724;51.272;6.554;2023-07-09T01:53:41;27.40;99.90
4701;DHT22;8724;51.272;6.554;2023-07-09T01:56:11;27.40;99.90
4701;DHT22;8724;51.272;6.554;2023-07-09T01:58:40;27.40;99.90
4701;DHT22;8724;51.272;6.554;2023-07-09T02:01:11;27.40;99.90
4701;DHT22;8724;51.272;6.554;2023-07-09T02:03:39;27.40;99.90
4701;DHT22;8724;51.272;6.554;2023-07-09T02:06:10;27.40;99.90
4701;DHT22;8724;51.272;6.554;2023-07-09T02:08:41;27.30;99.90
4701;DHT22;8724;51.272;6.554;2023-07-09T02:11:09;27.30;99.90
4701;DHT22;8724;51.272;6.554;2023-07-09T02:13:37;27.30;99.90
4701;DHT22;8724;51.272;6.554;2023-07-09T02:16:06;27.30;99.90
4701;DHT22;8724;51.272;6.554;2023-07-09T02:18:34;27.30;99.90
4701;DHT22;8724;51.272;6.554;2023-07-09T02:21:03;27.00;99.90
4701;DHT22;8724;51.272;6.554;2023-07-09T02:23:32;27.20;99.90
4701;DHT22;8724;51.272;6.554;2023-07-09T02:26:01;27.20;99.90
4701;DHT22;8724;51.272;6.554;2023-07-09T02:28:31;27.30;99.90
4701;DHT22;8724;51.272;6.554;2023-07-09T02:30:59;27.20;99.90
4701;DHT22;8724;51.272;6.554;2023-07-09T02:33:28;27.20;99.90
4701;DHT22;8724;51.272;6.554;2023-07-09T02:36:00;27.20;99.90
4701;DHT22;8724;51.272;6.554;2023-07-09T02:38:29;27.20;99.90
4701;DHT22;8724;51.272;6.554;2023-07-09T02:40:57;27.10;99.90
4701;DHT22;8724;51.272;6.554;2023-07-09T02:43:28;27.10;99.90
4701;DHT22;8724;51.272;6.554;2023-07-09T02:45:56;27.10;99.90
4701;DHT22;8724;51.272;6.554;2023-07-09T02:48:25;27.10;99.90
4701;DHT22;8724;51.272;6.554;2023-07-09T02:50:53;27.10;99.90
4701;DHT22;8724;51.272;6.554;2023-07-09T02:53:22;27.10;99.90
4701;DHT22;8724;51.272;6.554;2023-07-09T02:55:50;27.10;99.90
4701;DHT22;8724;51.272;6.554;2023-07-09T02:58:19;27.10;99.90
4701;DHT22;8724;51.272;6.554;2023-07-09T03:00:50;27.10;99.90
4701;DHT22;8724;51.272;6.554;2023-07-09T03:03:20;27.10;99.90
4701;DHT22;8724;51.272;6.554;2023-07-09T03:05:49;27.10;99.90
4701;DHT22;8724;51.272;6.554;2023-07-09T03:08:18;27.00;99.90
4701;DHT22;8724;51.272;6.554;2023-07-09T03:10:46;27.00;99.90
4701;DHT22;8724;51.272;6.554;2023-07-09T03:13:15;27.00;99.90
4701;DHT22;8724;51.272;6.554;2023-07-09T03:15:43;27.00;99.90
4701;DHT22;8724;51.272;6.554;2023-07-09T03:18:13;26.90;99.90
4701;DHT22;8724;51.272;6.554;2023-07-09T03:20:42;26.90;99.90
4701;DHT22;8724;51.272;6.554;2023-07-09T03:23:10;26.90;99.90
4701;DHT22;8724;51.272;6.554;2023-07-09T03:25:40;26.90;99.90
4701;DHT22;8724;51.272;6.554;2023-07-09T03:28:09;26.90;99.90
4701;DHT22;8724;51.272;6.554;2023-07-09T03:30:40;26.80;99.90
4701;DHT22;8724;51.272;6.554;2023-07-09T03:33:09;26.90;99.90
4701;DHT22;8724;51.272;6.554;2023-07-09T03:35:39;26.80;99.90
4701;DHT22;8724;51.272;6.554;2023-07-09T03:38:09;26.70;99.90
4701;DHT22;8724;51.272;6.554;2023-07-09T03:40:38;26.80;99.90
4701;DHT22;8724;51.272;6.554;2023-07-09T03:43:08;26.70;99.90
4701;DHT22;8724;51.272;6.554;2023-07-09T03:45:37;26.70;99.90
4701;DHT22;8724;51.272;6.554;2023-07-09T03:48:06;26.70;99.90
4701;DHT22;8724;51.272;6.554;2023-07-09T03:50:34;26.60;99.90
4701;DHT22;8724;51.272;6.554;2023-07-09T03:53:04;26.60;99.90
4701;DHT22;8724;51.272;6.554;2023-07-09T03:55:33;26.50;99.90
4701;DHT22;8724;51.272;6.554;2023-07-09T03:58:01;26.50;99.90
4701;DHT22;8724;51.272;6.554;2023-07-09T04:00:31;26.60;99.90
4701;DHT22;8724;51.272;6.554;2023-07-09T04:03:00;26.50;99.90
4701;DHT22;8724;51.272;6.554;2023-07-09T04:05:29;26.50;99.90
4701;DHT22;8724;51.272;6.554;2023-07-09T04:07:57;26.50;99.90
4701;DHT22;8724;51.272;6.554;2023-07-09T04:10:27;26.50;99.90
4701;DHT22;8724;51.272;6.554;2023-07-09T04:12:55;26.50;99.90
4701;DHT22;8724;51.272;6.554;2023-07-09T04:15:24;26.50;99.90
4701;DHT22;8724;51.272;6.554;2023-07-09T04:17:52;26.40;99.90
4701;DHT22;8724;51.272;6.554;2023-07-09T04:20:21;26.50;99.90
4701;DHT22;8724;51.272;6.554;2023-07-09T04:22:50;26.50;99.90
4701;DHT22;8724;51.272;6.554;2023-07-09T04:25:19;26.40;99.90
4701;DHT22;8724;51.272;6.554;2023-07-09T04:27:49;26.50;99.90
4701;DHT22;8724;51.272;6.554;2023-07-09T04:30:17;26.40;99.90
4701;DHT22;8724;51.272;6.554;2023-07-09T04:32:46;26.50;99.90
4701;DHT22;8724;51.272;6.554;2023-07-09T04:35:15;26.40;99.90
4701;DHT22;8724;51.272;6.554;2023-07-09T04:37:43;26.40;99.90
4701;DHT22;8724;51.272;6.554;2023-07-09T04:40:13;26.40;99.90
4701;DHT22;8724;51.272;6.554;2023-07-09T04:42:42;26.50;99.90
4701;DHT22;8724;51.272;6.554;2023-07-09T04:45:12;26.50;99.90
4701;DHT22;8724;51.272;6.554;2023-07-09T04:47:40;26.50;99.90
4701;DHT22;8724;51.272;6.554;2023-07-09T04:50:09;26.40;99.90
4701;DHT22;8724;51.272;6.554;2023-07-09T04:52:38;26.50;99.90
4701;DHT22;8724;51.272;6.554;2023-07-09T04:55:07;26.40;99.90
4701;DHT22;8724;51.272;6.554;2023-07-09T04:57:36;26.50;99.90
4701;DHT22;8724;51.272;6.554;2023-07-09T05:00:05;26.40;99.90
4701;DHT22;8724;51.272;6.554;2023-07-09T05:02:36;26.40;99.90
4701;DHT22;8724;51.272;6.554;2023-07-09T05:05:05;26.50;99.90
4701;DHT22;8724;51.272;6.554;2023-07-09T05:07:34;26.50;99.90
4701;DHT22;8724;51.272;6.554;2023-07-09T05:10:04;26.50;99.90
4701;DHT22;8724;51.272;6.554;2023-07-09T05:12:32;26.50;99.90
4701;DHT22;8724;51.272;6.554;2023-07-09T05:15:01;26.50;99.90
4701;DHT22;8724;51.272;6.554;2023-07-09T05:17:29;26.50;99.90
4701;DHT22;8724;51.272;6.554;2023-07-09T05:19:59;26.50;99.90
4701;DHT22;8724;51.272;6.554;2023-07-09T05:22:27;26.50;99.90
4701;DHT22;8724;51.272;6.554;2023-07-09T05:24:56;26.50;99.90
4701;DHT22;8724;51.272;6.554;2023-07-09T05:27:24;26.50;99.90
4701;DHT22;8724;51.272;6.554;2023-07-09T05:29:53;26.50;99.90
4701;DHT22;8724;51.272;6.554;2023-07-09T05:32:21;26.50;99.90
4701;DHT22;8724;51.272;6.554;2023-07-09T05:34:50;26.50;99.90
4701;DHT22;8724;51.272;6.554;2023-07-09T05:37:20;26.50;99.90
4701;DHT22;8724;51.272;6.554;2023-07-09T05:39:48;26.60;99.90
4701;DHT22;8724;51.272;6.554;2023-07-09T05:42:17;26.60;99.90
4701;DHT22;8724;51.272;6.554;2023-07-09T05:44:45;26.60;99.90
4701;DHT22;8724;51.272;6.554;2023-07-09T05:47:14;26.50;99.90
4701;DHT22;8724;51.272;6.554;2023-07-09T05:49:43;26.60;99.90
4701;DHT22;8724;51.272;6.554;2023-07-09T05:52:12;26.60;99.90
4701;DHT22;8724;51.272;6.554;2023-07-09T05:54:42;26.60;99.90
4701;DHT22;8724;51.272;6.554;2023-07-09T05:57:11;26.60;99.90
4701;DHT22;8724;51.272;6.554;2023-07-09T05:59:39;26.60;99.90
4701;DHT22;8724;51.272;6.554;2023-07-09T06:02:10;26.60;99.90
4701;DHT22;8724;51.272;6.554;2023-07-09T06:04:39;26.60;99.90
4701;DHT22;8724;51.272;6.554;2023-07-09T06:07:08;26.60;99.90
4701;DHT22;8724;51.272;6.554;2023-07-09T06:09:37;26.60;99.90
4701;DHT22;8724;51.272;6.554;2023-07-09T06:12:09;26.70;99.90
4701;DHT22;8724;51.272;6.554;2023-07-09T06:14:38;26.70;99.90
4701;DHT22;8724;51.272;6.554;2023-07-09T06:17:06;26.70;99.90
4701;DHT22;8724;51.272;6.554;2023-07-09T06:19:35;26.70;99.90
4701;DHT22;8724;51.272;6.554;2023-07-09T06:22:04;26.70;99.90
4701;DHT22;8724;51.272;6.554;2023-07-09T06:24:32;26.70;99.90
4701;DHT22;8724;51.272;6.554;2023-07-09T06:27:01;26.70;99.90
4701;DHT22;8724;51.272;6.554;2023-07-09T06:29:31;26.70;99.90
4701;DHT22;8724;51.272;6.554;2023-07-09T06:31:59;26.70;99.90
4701;DHT22;8724;51.272;6.554;2023-07-09T06:34:28;26.80;99.90
4701;DHT22;8724;51.272;6.554;2023-07-09T06:36:59;26.70;99.90
4701;DHT22;8724;51.272;6.554;2023-07-09T06:39:28;26.80;99.90
4701;DHT22;8724;51.272;6.554;2023-07-09T06:41:56;26.80;99.90
4701;DHT22;8724;51.272;6.554;2023-07-09T06:44:55;26.80;99.90
4701;DHT22;8724;51.272;6.554;2023-07-09T06:47:24;26.80;99.90
4701;DHT22;8724;51.272;6.554;2023-07-09T06:49:52;26.80;99.90
4701;DHT22;8724;51.272;6.554;2023-07-09T06:52:21;26.80;99.90
4701;DHT22;8724;51.272;6.554;2023-07-09T06:54:49;26.80;99.90
4701;DHT22;8724;51.272;6.554;2023-07-09T06:57:18;26.90;99.90
4701;DHT22;8724;51.272;6.554;2023-07-09T06:59:46;26.90;99.90
4701;DHT22;8724;51.272;6.554;2023-07-09T07:02:16;26.90;99.90
4701;DHT22;8724;51.272;6.554;2023-07-09T07:04:44;26.90;99.90
4701;DHT22;8724;51.272;6.554;2023-07-09T07:07:13;26.90;99.90
4701;DHT22;8724;51.272;6.554;2023-07-09T07:09:41;26.90;99.90
4701;DHT22;8724;51.272;6.554;2023-07-09T07:12:10;27.00;99.90
4701;DHT22;8724;51.272;6.554;2023-07-09T07:14:39;27.00;99.90
4701;DHT22;8724;51.272;6.554;2023-07-09T07:17:07;26.90;99.90
4701;DHT22;8724;51.272;6.554;2023-07-09T07:19:37;27.00;99.90
4701;DHT22;8724;51.272;6.554;2023-07-09T07:22:06;27.00;99.90
4701;DHT22;8724;51.272;6.554;2023-07-09T07:24:34;27.00;99.90
4701;DHT22;8724;51.272;6.554;2023-07-09T07:27:03;27.00;99.90
4701;DHT22;8724;51.272;6.554;2023-07-09T07:29:32;27.00;99.90
4701;DHT22;8724;51.272;6.554;2023-07-09T07:32:00;27.10;99.90
4701;DHT22;8724;51.272;6.554;2023-07-09T07:34:30;27.10;99.90
4701;DHT22;8724;51.272;6.554;2023-07-09T07:36:59;27.10;99.90
4701;DHT22;8724;51.272;6.554;2023-07-09T07:39:28;27.10;99.90
4701;DHT22;8724;51.272;6.554;2023-07-09T07:41:56;27.10;99.90
4701;DHT22;8724;51.272;6.554;2023-07-09T07:44:24;27.10;99.90
4701;DHT22;8724;51.272;6.554;2023-07-09T07:46:53;27.10;99.90
4701;DHT22;8724;51.272;6.554;2023-07-09T07:49:21;27.10;99.90
4701;DHT22;8724;51.272;6.554;2023-07-09T07:51:50;27.20;99.90
4701;DHT22;8724;51.272;6.554;2023-07-09T07:54:20;27.10;99.90
4701;DHT22;8724;51.272;6.554;2023-07-09T07:56:48;27.20;99.90
4701;DHT22;8724;51.272;6.554;2023-07-09T07:59:17;27.20;99.90
4701;DHT22;8724;51.272;6.554;2023-07-09T08:01:45;27.20;99.90
4701;DHT22;8724;51.272;6.554;2023-07-09T08:04:18;27.20;99.90
4701;DHT22;8724;51.272;6.554;2023-07-09T08:06:47;27.20;99.90
4701;DHT22;8724;51.272;6.554;2023-07-09T08:09:16;27.20;99.90
4701;DHT22;8724;51.272;6.554;2023-07-09T08:11:46;27.30;99.90
4701;DHT22;8724;51.272;6.554;2023-07-09T08:14:14;27.30;99.90
4701;DHT22;8724;51.272;6.554;2023-07-09T08:16:43;27.30;99.90
4701;DHT22;8724;51.272;6.554;2023-07-09T08:19:12;27.30;99.90
4701;DHT22;8724;51.272;6.554;2023-07-09T08:21:41;27.30;99.90
4701;DHT22;8724;51.272;6.554;2023-07-09T08:24:09;27.30;99.90
4701;DHT22;8724;51.272;6.554;2023-07-09T08:26:38;27.30;99.90
4701;DHT22;8724;51.272;6.554;2023-07-09T08:29:08;27.30;99.90
4701;DHT22;8724;51.272;6.554;2023-07-09T08:31:36;27.40;99.90
4701;DHT22;8724;51.272;6.554;2023-07-09T08:34:06;27.40;99.90
4701;DHT22;8724;51.272;6.554;2023-07-09T08:36:35;27.40;99.90
4701;DHT22;8724;51.272;6.554;2023-07-09T08:39:03;27.50;99.90
4701;DHT22;8724;51.272;6.554;2023-07-09T08:41:39;27.40;99.90
4701;DHT22;8724;51.272;6.554;2023-07-09T08:44:26;27.50;99.90
4701;DHT22;8724;51.272;6.554;2023-07-09T08:47:05;27.50;99.90
4701;DHT22;8724;51.272;6.554;2023-07-09T08:49:41;27.50;99.90
4701;DHT22;8724;51.272;6.554;2023-07-09T08:52:15;27.50;99.90
4701;DHT22;8724;51.272;6.554;2023-07-09T08:54:46;27.50;99.90
4701;DHT22;8724;51.272;6.554;2023-07-09T08:57:20;27.60;99.90
4701;DHT22;8724;51.272;6.554;2023-07-09T08:59:56;27.50;99.90
4701;DHT22;8724;51.272;6.554;2023-07-09T09:02:31;27.60;99.90
4701;DHT22;8724;51.272;6.554;2023-07-09T09:05:03;27.60;99.90
4701;DHT22;8724;51.272;6.554;2023-07-09T09:07:40;27.60;99.90
4701;DHT22;8724;51.272;6.554;2023-07-09T09:10:13;27.60;99.90
4701;DHT22;8724;51.272;6.554;2023-07-09T09:12:55;27.60;99.90
4701;DHT22;8724;51.272;6.554;2023-07-09T09:15:27;27.70;99.90
4701;DHT22;8724;51.272;6.554;2023-07-09T09:18:13;27.70;99.90
4701;DHT22;8724;51.272;6.554;2023-07-09T09:20:43;27.70;99.90
4701;DHT22;8724;51.272;6.554;2023-07-09T09:23:14;27.70;99.90
4701;DHT22;8724;51.272;6.554;2023-07-09T09:25:47;27.70;99.90
4701;DHT22;8724;51.272;6.554;2023-07-09T09:28:35;27.80;99.90
4701;DHT22;8724;51.272;6.554;2023-07-09T09:31:05;27.80;99.90
4701;DHT22;8724;51.272;6.554;2023-07-09T09:33:40;27.80;99.90
4701;DHT22;8724;51.272;6.554;2023-07-09T09:36:15;27.80;99.90
4701;DHT22;8724;51.272;6.554;2023-07-09T09:38:44;27.90;99.90
4701;DHT22;8724;51.272;6.554;2023-07-09T09:41:14;27.90;99.90
4701;DHT22;8724;51.272;6.554;2023-07-09T09:43:45;27.90;99.90
4701;DHT22;8724;51.272;6.554;2023-07-09T09:46:20;27.90;99.90
4701;DHT22;8724;51.272;6.554;2023-07-09T09:48:50;27.90;99.90
4701;DHT22;8724;51.272;6.554;2023-07-09T09:51:18;28.00;99.90
4701;DHT22;8724;51.272;6.554;2023-07-09T09:53:50;28.00;99.90
4701;DHT22;8724;51.272;6.554;2023-07-09T09:56:26;28.00;99.90
4701;DHT22;8724;51.272;6.554;2023-07-09T09:58:56;28.10;99.90
4701;DHT22;8724;51.272;6.554;2023-07-09T10:01:28;28.10;99.90
4701;DHT22;8724;51.272;6.554;2023-07-09T10:03:59;28.10;99.90
4701;DHT22;8724;51.272;6.554;2023-07-09T10:06:33;28.10;99.90
4701;DHT22;8724;51.272;6.554;2023-07-09T10:09:08;28.20;99.90
4701;DHT22;8724;51.272;6.554;2023-07-09T10:11:45;28.20;99.90
4701;DHT22;8724;51.272;6.554;2023-07-09T10:14:31;28.30;99.90
4701;DHT22;8724;51.272;6.554;2023-07-09T10:17:07;28.30;99.90
4701;DHT22;8724;51.272;6.554;2023-07-09T10:19:47;28.30;99.90
4701;DHT22;8724;51.272;6.554;2023-07-09T10:22:28;28.30;99.90
4701;DHT22;8724;51.272;6.554;2023-07-09T10:25:02;28.30;99.90
4701;DHT22;8724;51.272;6.554;2023-07-09T10:27:40;28.40;99.90
4701;DHT22;8724;51.272;6.554;2023-07-09T10:30:26;28.40;99.90
4701;DHT22;8724;51.272;6.554;2023-07-09T10:33:08;28.40;99.90
4701;DHT22;8724;51.272;6.554;2023-07-09T10:35:47;28.50;99.90
4701;DHT22;8724;51.272;6.554;2023-07-09T10:38:28;28.50;99.90
4701;DHT22;8724;51.272;6.554;2023-07-09T10:41:02;28.50;99.90
4701;DHT22;8724;51.272;6.554;2023-07-09T10:43:56;28.50;99.90
4701;DHT22;8724;51.272;6.554;2023-07-09T10:46:31;28.60;99.90
4701;DHT22;8724;51.272;6.554;2023-07-09T10:49:03;28.60;99.90
4701;DHT22;8724;51.272;6.554;2023-07-09T10:51:38;28.60;99.90
4701;DHT22;8724;51.272;6.554;2023-07-09T10:54:13;28.70;99.90
4701;DHT22;8724;51.272;6.554;2023-07-09T10:56:43;28.70;99.90
4701;DHT22;8724;51.272;6.554;2023-07-09T10:59:19;28.70;99.90
4701;DHT22;8724;51.272;6.554;2023-07-09T11:01:52;28.70;99.90
4701;DHT22;8724;51.272;6.554;2023-07-09T11:04:31;28.70;99.90
4701;DHT22;8724;51.272;6.554;2023-07-09T11:07:04;28.80;99.90
4701;DHT22;8724;51.272;6.554;2023-07-09T11:09:38;28.80;99.90
4701;DHT22;8724;51.272;6.554;2023-07-09T11:12:11;28.80;99.90
4701;DHT22;8724;51.272;6.554;2023-07-09T11:14:42;28.80;99.90
4701;DHT22;8724;51.272;6.554;2023-07-09T11:17:15;28.80;99.90
4701;DHT22;8724;51.272;6.554;2023-07-09T11:19:48;28.90;99.90
4701;DHT22;8724;51.272;6.554;2023-07-09T11:22:22;29.00;99.90
4701;DHT22;8724;51.272;6.554;2023-07-09T11:25:08;29.00;99.90
4701;DHT22;8724;51.272;6.554;2023-07-09T11:27:48;29.00;99.90
4701;DHT22;8724;51.272;6.554;2023-07-09T11:30:20;29.10;99.90
4701;DHT22;8724;51.272;6.554;2023-07-09T11:32:53;29.10;99.90
4701;DHT22;8724;51.272;6.554;2023-07-09T11:35:46;29.20;99.90
4701;DHT22;8724;51.272;6.554;2023-07-09T11:38:18;29.20;99.90
4701;DHT22;8724;51.272;6.554;2023-07-09T11:40:48;29.30;99.90
4701;DHT22;8724;51.272;6.554;2023-07-09T11:43:28;29.30;99.90
4701;DHT22;8724;51.272;6.554;2023-07-09T11:46:07;29.40;99.90
4701;DHT22;8724;51.272;6.554;2023-07-09T11:48:40;29.40;99.90
4701;DHT22;8724;51.272;6.554;2023-07-09T11:51:16;29.50;99.90
4701;DHT22;8724;51.272;6.554;2023-07-09T11:53:48;29.50;99.90
4701;DHT22;8724;51.272;6.554;2023-07-09T11:56:19;29.60;99.90
4701;DHT22;8724;51.272;6.554;2023-07-09T11:58:49;29.60;99.90
4701;DHT22;8724;51.272;6.554;2023-07-09T12:01:20;29.70;99.90
4701;DHT22;8724;51.272;6.554;2023-07-09T12:03:50;29.70;99.90
4701;DHT22;8724;51.272;6.554;2023-07-09T12:06:22;29.80;99.90
4701;DHT22;8724;51.272;6.554;2023-07-09T12:08:51;29.80;99.90
4701;DHT22;8724;51.272;6.554;2023-07-09T12:11:23;29.90;99.90
4701;DHT22;8724;51.272;6.554;2023-07-09T12:13:52;29.90;99.90
4701;DHT22;8724;51.272;6.554;2023-07-09T12:16:23;29.90;99.90
4701;DHT22;8724;51.272;6.554;2023-07-09T12:18:52;30.00;99.90
4701;DHT22;8724;51.272;6.554;2023-07-09T12:21:24;30.00;99.90
4701;DHT22;8724;51.272;6.554;2023-07-09T12:23:54;30.10;99.90
4701;DHT22;8724;51.272;6.554;2023-07-09T12:26:23;30.10;99.90
4701;DHT22;8724;51.272;6.554;2023-07-09T12:28:53;30.10;99.90
4701;DHT22;8724;51.272;6.554;2023-07-09T12:31:26;30.10;99.90
4701;DHT22;8724;51.272;6.554;2023-07-09T12:33:56;30.10;99.90
4701;DHT22;8724;51.272;6.554;2023-07-09T12:36:28;30.10;99.90
4701;DHT22;8724;51.272;6.554;2023-07-09T12:39:00;30.10;99.90
4701;DHT22;8724;51.272;6.554;2023-07-09T12:41:38;30.10;99.90
4701;DHT22;8724;51.272;6.554;2023-07-09T12:44:15;30.10;99.90
4701;DHT22;8724;51.272;6.554;2023-07-09T12:46:45;30.10;99.90
4701;DHT22;8724;51.272;6.554;2023-07-09T12:49:21;30.10;99.90
4701;DHT22;8724;51.272;6.554;2023-07-09T12:51:54;30.10;99.90
4701;DHT22;8724;51.272;6.554;2023-07-09T12:54:23;30.10;99.90
4701;DHT22;8724;51.272;6.554;2023-07-09T12:56:53;30.10;99.90
4701;DHT22;8724;51.272;6.554;2023-07-09T12:59:23;30.10;99.90
4701;DHT22;8724;51.272;6.554;2023-07-09T13:01:55;30.10;99.90
4701;DHT22;8724;51.272;6.554;2023-07-09T13:04:29;30.10;99.90
4701;DHT22;8724;51.272;6.554;2023-07-09T13:06:59;30.10;99.90
4701;DHT22;8724;51.272;6.554;2023-07-09T13:09:28;30.10;99.90
4701;DHT22;8724;51.272;6.554;2023-07-09T13:11:57;30.10;99.90
4701;DHT22;8724;51.272;6.554;2023-07-09T13:14:29;30.10;99.90
4701;DHT22;8724;51.272;6.554;2023-07-09T13:17:03;30.10;99.90
4701;DHT22;8724;51.272;6.554;2023-07-09T13:19:33;30.00;99.90
4701;DHT22;8724;51.272;6.554;2023-07-09T13:22:04;30.00;99.90
4701;DHT22;8724;51.272;6.554;2023-07-09T13:24:33;30.00;99.90
4701;DHT22;8724;51.272;6.554;2023-07-09T13:27:02;30.00;99.90
4701;DHT22;8724;51.272;6.554;2023-07-09T13:29:34;29.90;99.90
4701;DHT22;8724;51.272;6.554;2023-07-09T13:32:04;30.00;99.90
4701;DHT22;8724;51.272;6.554;2023-07-09T13:34:37;29.90;99.90
4701;DHT22;8724;51.272;6.554;2023-07-09T13:37:11;29.90;99.90
4701;DHT22;8724;51.272;6.554;2023-07-09T13:39:40;29.90;99.90
4701;DHT22;8724;51.272;6.554;2023-07-09T13:42:11;29.90;99.90
4701;DHT22;8724;51.272;6.554;2023-07-09T13:44:41;29.80;99.90
4701;DHT22;8724;51.272;6.554;2023-07-09T13:47:12;29.80;99.90
4701;DHT22;8724;51.272;6.554;2023-07-09T13:49:44;29.80;99.90
4701;DHT22;8724;51.272;6.554;2023-07-09T13:52:17;29.80;99.90
4701;DHT22;8724;51.272;6.554;2023-07-09T13:54:46;29.70;99.90
4701;DHT22;8724;51.272;6.554;2023-07-09T13:57:18;29.60;99.90
4701;DHT22;8724;51.272;6.554;2023-07-09T13:59:48;29.60;99.90
4701;DHT22;8724;51.272;6.554;2023-07-09T14:02:24;29.60;99.90
4701;DHT22;8724;51.272;6.554;2023-07-09T14:04:59;29.50;99.90
4701;DHT22;8724;51.272;6.554;2023-07-09T14:07:31;29.40;99.90
4701;DHT22;8724;51.272;6.554;2023-07-09T14:10:00;29.30;99.90
4701;DHT22;8724;51.272;6.554;2023-07-09T14:12:28;29.20;99.90
4701;DHT22;8724;51.272;6.554;2023-07-09T14:14:59;29.20;99.90
4701;DHT22;8724;51.272;6.554;2023-07-09T14:17:28;29.20;99.90
4701;DHT22;8724;51.272;6.554;2023-07-09T14:19:56;29.10;99.90
4701;DHT22;8724;51.272;6.554;2023-07-09T14:22:33;29.10;99.90
4701;DHT22;8724;51.272;6.554;2023-07-09T14:25:03;28.90;99.90
4701;DHT22;8724;51.272;6.554;2023-07-09T14:27:32;28.90;99.90
4701;DHT22;8724;51.272;6.554;2023-07-09T14:30:00;28.80;99.90
4701;DHT22;8724;51.272;6.554;2023-07-09T14:32:34;28.80;99.90
4701;DHT22;8724;51.272;6.554;2023-07-09T14:35:11;28.70;99.90
4701;DHT22;8724;51.272;6.554;2023-07-09T14:37:41;28.60;99.90
4701;DHT22;8724;51.272;6.554;2023-07-09T14:40:11;28.50;99.90
4701;DHT22;8724;51.272;6.554;2023-07-09T14:42:40;28.40;99.90
4701;DHT22;8724;51.272;6.554;2023-07-09T14:45:17;28.30;99.90
4701;DHT22;8724;51.272;6.554;2023-07-09T14:47:46;28.20;99.90
4701;DHT22;8724;51.272;6.554;2023-07-09T14:50:15;28.20;99.90
4701;DHT22;8724;51.272;6.554;2023-07-09T14:52:47;28.00;99.90
4701;DHT22;8724;51.272;6.554;2023-07-09T14:55:17;27.80;99.90
4701;DHT22;8724;51.272;6.554;2023-07-09T14:57:46;27.70;99.90
4701;DHT22;8724;51.272;6.554;2023-07-09T15:00:16;27.40;99.90
4701;DHT22;8724;51.272;6.554;2023-07-09T15:02:47;27.20;99.90
4701;DHT22;8724;51.272;6.554;2023-07-09T15:05:18;27.10;99.90
4701;DHT22;8724;51.272;6.554;2023-07-09T15:07:49;27.00;99.90
4701;DHT22;8724;51.272;6.554;2023-07-09T15:10:20;26.90;99.90
4701;DHT22;8724;51.272;6.554;2023-07-09T15:12:51;26.80;99.90
4701;DHT22;8724;51.272;6.554;2023-07-09T15:15:22;26.70;99.90
4701;DHT22;8724;51.272;6.554;2023-07-09T15:17:51;26.70;99.90
4701;DHT22;8724;51.272;6.554;2023-07-09T15:20:22;26.70;99.90
4701;DHT22;8724;51.272;6.554;2023-07-09T15:22:53;26.70;99.90
4701;DHT22;8724;51.272;6.554;2023-07-09T15:25:24;26.60;99.90
4701;DHT22;8724;51.272;6.554;2023-07-09T15:27:53;26.60;99.90
4701;DHT22;8724;51.272;6.554;2023-07-09T15:30:25;26.50;99.90
4701;DHT22;8724;51.272;6.554;2023-07-09T15:32:56;26.50;99.90
4701;DHT22;8724;51.272;6.554;2023-07-09T15:35:34;26.40;99.90
4701;DHT22;8724;51.272;6.554;2023-07-09T15:38:25;26.40;99.90
4701;DHT22;8724;51.272;6.554;2023-07-09T15:40:54;26.30;99.90
4701;DHT22;8724;51.272;6.554;2023-07-09T15:43:23;26.40;99.90
4701;DHT22;8724;51.272;6.554;2023-07-09T15:45:55;26.20;99.90
4701;DHT22;8724;51.272;6.554;2023-07-09T15:48:27;26.20;99.90
4701;DHT22;8724;51.272;6.554;2023-07-09T15:50:58;26.20;99.90
4701;DHT22;8724;51.272;6.554;2023-07-09T15:53:31;26.10;99.90
4701;DHT22;8724;51.272;6.554;2023-07-09T15:56:02;26.20;99.90
4701;DHT22;8724;51.272;6.554;2023-07-09T15:58:37;26.10;99.90
4701;DHT22;8724;51.272;6.554;2023-07-09T16:01:09;26.10;99.90
4701;DHT22;8724;51.272;6.554;2023-07-09T16:03:38;26.10;99.90
4701;DHT22;8724;51.272;6.554;2023-07-09T16:06:06;26.20;99.90
4701;DHT22;8724;51.272;6.554;2023-07-09T16:08:36;26.20;99.90
4701;DHT22;8724;51.272;6.554;2023-07-09T16:11:12;26.30;99.90
4701;DHT22;8724;51.272;6.554;2023-07-09T16:13:42;26.30;99.90
4701;DHT22;8724;51.272;6.554;2023-07-09T16:16:14;26.40;99.90
4701;DHT22;8724;51.272;6.554;2023-07-09T16:18:48;26.40;99.90
4701;DHT22;8724;51.272;6.554;2023-07-09T16:21:22;26.50;99.90
4701;DHT22;8724;51.272;6.554;2023-07-09T16:23:53;26.50;99.90
4701;DHT22;8724;51.272;6.554;2023-07-09T16:26:22;26.50;99.90
4701;DHT22;8724;51.272;6.554;2023-07-09T16:28:52;26.60;99.90